RYR4YZ LIME-LFML
Flight info
| Callsign | RYR4YZ |
|---|---|
| Flight time | 0h 45m |
| Altitude | 37000 |
| Route | VOG DCT STP DCT LANKO |
| Aircraft | B738/M-SDE2E3FGHIRWXY/LB1 |
Departure
| Time | 2026-05-07 20:21 |
|---|---|
| Airport | Il Caravaggio International Airport (LIME) |
Arrival
| Time | 2026-05-07 21:06 |
|---|---|
| Airport | Marseille Provence Airport (LFML) |
| Time | Latitude | Longitude | Altitude | Speed | Heading |
|---|---|---|---|---|---|
| 2026-05-07 20:10 | 45.66789 | 9.69346 | 788 ft | 0 kts | 194° |
| 2026-05-07 20:15 | 45.66793 | 9.69347 | 788 ft | 2 kts | 194° |
| 2026-05-07 20:16 | 45.66809 | 9.69353 | 788 ft | 2 kts | 194° |
| 2026-05-07 20:16 | 45.66824 | 9.69358 | 788 ft | 2 kts | 194° |
| 2026-05-07 20:16 | 45.66840 | 9.69364 | 788 ft | 2 kts | 194° |
| 2026-05-07 20:16 | 45.66854 | 9.69374 | 787 ft | 2 kts | 259° |
| 2026-05-07 20:17 | 45.66855 | 9.69397 | 787 ft | 2 kts | 292° |
| 2026-05-07 20:17 | 45.66854 | 9.69399 | 787 ft | 0 kts | 292° |
| 2026-05-07 20:18 | 45.66857 | 9.69389 | 787 ft | 5 kts | 292° |
| 2026-05-07 20:18 | 45.66876 | 9.69296 | 788 ft | 15 kts | 284° |
| 2026-05-07 20:19 | 45.66904 | 9.69112 | 789 ft | 23 kts | 277° |
| 2026-05-07 20:19 | 45.66923 | 9.68925 | 791 ft | 15 kts | 286° |
| 2026-05-07 20:19 | 45.66994 | 9.68886 | 791 ft | 0 kts | 14° |
| 2026-05-07 20:19 | 45.67005 | 9.68890 | 791 ft | 2 kts | 17° |
| 2026-05-07 20:20 | 45.67018 | 9.68897 | 791 ft | 3 kts | 21° |
| 2026-05-07 20:20 | 45.67059 | 9.68929 | 791 ft | 12 kts | 34° |
| 2026-05-07 20:20 | 45.67096 | 9.69007 | 790 ft | 9 kts | 95° |
| 2026-05-07 20:20 | 45.67071 | 9.69150 | 788 ft | 20 kts | 105° |
| 2026-05-07 20:21 | 45.67010 | 9.69474 | 786 ft | 67 kts | 105° |
| 2026-05-07 20:21 | 45.66815 | 9.70529 | 779 ft | 150 kts | 105° |
| 2026-05-07 20:21 | 45.66497 | 9.72238 | 1110 ft | 198 kts | 105° |
| 2026-05-07 20:21 | 45.66079 | 9.74280 | 1731 ft | 219 kts | 116° |
| 2026-05-07 20:22 | 45.65041 | 9.75723 | 2924 ft | 207 kts | 160° |
| 2026-05-07 20:22 | 45.63671 | 9.75776 | 3986 ft | 197 kts | 205° |
| 2026-05-07 20:22 | 45.62552 | 9.74637 | 4829 ft | 206 kts | 220° |
| 2026-05-07 20:22 | 45.61381 | 9.73214 | 5128 ft | 237 kts | 221° |
| 2026-05-07 20:23 | 45.60048 | 9.71590 | 5492 ft | 264 kts | 220° |
| 2026-05-07 20:23 | 45.58627 | 9.69867 | 6299 ft | 271 kts | 220° |
| 2026-05-07 20:23 | 45.57182 | 9.68111 | 7230 ft | 274 kts | 220° |
| 2026-05-07 20:23 | 45.55719 | 9.66342 | 8138 ft | 277 kts | 220° |
| 2026-05-07 20:24 | 45.54232 | 9.64555 | 9024 ft | 281 kts | 220° |
| 2026-05-07 20:24 | 45.52724 | 9.62751 | 9871 ft | 285 kts | 220° |
| 2026-05-07 20:24 | 45.51182 | 9.60915 | 10565 ft | 297 kts | 220° |
| 2026-05-07 20:24 | 45.49520 | 9.58940 | 10766 ft | 324 kts | 220° |
| 2026-05-07 20:25 | 45.47749 | 9.56842 | 11334 ft | 336 kts | 220° |
| 2026-05-07 20:25 | 45.45939 | 9.54702 | 12146 ft | 340 kts | 220° |
| 2026-05-07 20:25 | 45.44114 | 9.52549 | 12985 ft | 342 kts | 220° |
| 2026-05-07 20:25 | 45.42267 | 9.50373 | 13760 ft | 347 kts | 220° |
| 2026-05-07 20:26 | 45.40397 | 9.48173 | 14505 ft | 351 kts | 220° |
| 2026-05-07 20:26 | 45.38503 | 9.45947 | 15253 ft | 355 kts | 220° |
| 2026-05-07 20:26 | 45.36588 | 9.43698 | 15986 ft | 359 kts | 220° |
| 2026-05-07 20:26 | 45.34654 | 9.41429 | 16689 ft | 363 kts | 220° |
| 2026-05-07 20:27 | 45.32696 | 9.39133 | 17378 ft | 367 kts | 220° |
| 2026-05-07 20:27 | 45.30720 | 9.36818 | 18056 ft | 370 kts | 220° |
| 2026-05-07 20:27 | 45.28720 | 9.34478 | 18699 ft | 374 kts | 220° |
| 2026-05-07 20:27 | 45.26700 | 9.32117 | 19354 ft | 378 kts | 219° |
| 2026-05-07 20:28 | 45.24670 | 9.29745 | 20078 ft | 378 kts | 219° |
| 2026-05-07 20:28 | 45.22649 | 9.27387 | 20946 ft | 373 kts | 219° |
| 2026-05-07 20:28 | 45.20653 | 9.25061 | 21786 ft | 370 kts | 219° |
| 2026-05-07 20:28 | 45.18666 | 9.22747 | 22468 ft | 371 kts | 219° |
| 2026-05-07 20:29 | 45.16666 | 9.20420 | 23082 ft | 372 kts | 219° |
| 2026-05-07 20:29 | 45.14668 | 9.18097 | 23782 ft | 371 kts | 219° |
| 2026-05-07 20:29 | 45.12684 | 9.15792 | 24526 ft | 367 kts | 219° |
| 2026-05-07 20:29 | 45.10700 | 9.13490 | 24923 ft | 369 kts | 219° |
| 2026-05-07 20:30 | 45.08713 | 9.11186 | 24928 ft | 369 kts | 219° |
| 2026-05-07 20:30 | 45.06729 | 9.08887 | 24978 ft | 372 kts | 219° |
| 2026-05-07 20:30 | 45.04691 | 9.06529 | 25002 ft | 386 kts | 219° |
| 2026-05-07 20:30 | 45.02575 | 9.04080 | 25015 ft | 400 kts | 219° |
| 2026-05-07 20:31 | 45.00391 | 9.01556 | 25017 ft | 412 kts | 219° |
| 2026-05-07 20:31 | 44.98135 | 8.98954 | 25010 ft | 424 kts | 219° |
| 2026-05-07 20:31 | 44.95836 | 8.96265 | 25018 ft | 435 kts | 221° |
| 2026-05-07 20:31 | 44.93576 | 8.93352 | 25007 ft | 445 kts | 224° |
| 2026-05-07 20:32 | 44.91355 | 8.90255 | 25023 ft | 453 kts | 225° |
| 2026-05-07 20:32 | 44.89169 | 8.87078 | 24996 ft | 461 kts | 226° |
| 2026-05-07 20:32 | 44.86902 | 8.83746 | 25023 ft | 468 kts | 226° |
| 2026-05-07 20:32 | 44.84622 | 8.80417 | 24998 ft | 475 kts | 226° |
| 2026-05-07 20:33 | 44.82300 | 8.77067 | 25018 ft | 480 kts | 225° |
| 2026-05-07 20:33 | 44.79953 | 8.73721 | 25003 ft | 480 kts | 225° |
| 2026-05-07 20:33 | 44.77600 | 8.70398 | 24998 ft | 479 kts | 225° |
| 2026-05-07 20:33 | 44.75242 | 8.67088 | 25015 ft | 478 kts | 225° |
| 2026-05-07 20:34 | 44.72887 | 8.63794 | 24993 ft | 478 kts | 225° |
| 2026-05-07 20:34 | 44.70528 | 8.60498 | 24999 ft | 478 kts | 225° |
| 2026-05-07 20:34 | 44.68174 | 8.57213 | 25003 ft | 477 kts | 225° |
| 2026-05-07 20:34 | 44.65819 | 8.53927 | 25005 ft | 477 kts | 225° |
| 2026-05-07 20:35 | 44.63496 | 8.50689 | 24994 ft | 477 kts | 225° |
| 2026-05-07 20:35 | 44.61138 | 8.47404 | 24997 ft | 478 kts | 225° |
| 2026-05-07 20:35 | 44.58781 | 8.44124 | 25003 ft | 478 kts | 225° |
| 2026-05-07 20:35 | 44.56419 | 8.40842 | 25008 ft | 478 kts | 225° |
| 2026-05-07 20:36 | 44.54056 | 8.37561 | 25000 ft | 478 kts | 225° |
| 2026-05-07 20:36 | 44.51660 | 8.34238 | 24994 ft | 479 kts | 225° |
| 2026-05-07 20:36 | 44.49291 | 8.30958 | 25004 ft | 479 kts | 225° |
| 2026-05-07 20:36 | 44.46924 | 8.27683 | 25006 ft | 479 kts | 225° |
| 2026-05-07 20:37 | 44.44551 | 8.24405 | 24996 ft | 479 kts | 225° |
| 2026-05-07 20:37 | 44.42208 | 8.21172 | 24997 ft | 480 kts | 225° |
| 2026-05-07 20:37 | 44.39829 | 8.17894 | 25007 ft | 480 kts | 225° |
| 2026-05-07 20:37 | 44.37419 | 8.14576 | 25008 ft | 480 kts | 225° |
| 2026-05-07 20:38 | 44.35066 | 8.11342 | 25001 ft | 481 kts | 225° |
| 2026-05-07 20:38 | 44.32648 | 8.08021 | 24997 ft | 481 kts | 225° |
| 2026-05-07 20:38 | 44.30257 | 8.04742 | 25012 ft | 481 kts | 225° |
| 2026-05-07 20:38 | 44.27902 | 8.01516 | 25009 ft | 482 kts | 224° |
| 2026-05-07 20:39 | 44.25507 | 7.98239 | 24993 ft | 483 kts | 224° |
| 2026-05-07 20:39 | 44.23075 | 7.94916 | 24991 ft | 484 kts | 224° |
| 2026-05-07 20:39 | 44.20667 | 7.91629 | 25001 ft | 485 kts | 224° |
| 2026-05-07 20:39 | 44.18284 | 7.88381 | 24993 ft | 487 kts | 224° |
| 2026-05-07 20:40 | 44.15831 | 7.85041 | 25007 ft | 487 kts | 224° |
| 2026-05-07 20:40 | 44.13436 | 7.81784 | 25010 ft | 488 kts | 224° |
| 2026-05-07 20:40 | 44.11004 | 7.78480 | 24999 ft | 488 kts | 224° |
| 2026-05-07 20:40 | 44.08571 | 7.75180 | 24995 ft | 488 kts | 224° |
| 2026-05-07 20:41 | 44.06141 | 7.71887 | 24998 ft | 488 kts | 224° |
| 2026-05-07 20:41 | 44.03705 | 7.68590 | 25002 ft | 489 kts | 224° |
| 2026-05-07 20:41 | 44.01272 | 7.65300 | 25006 ft | 489 kts | 224° |
| 2026-05-07 20:41 | 43.98832 | 7.62007 | 25006 ft | 489 kts | 224° |
| 2026-05-07 20:42 | 43.96398 | 7.58724 | 25005 ft | 486 kts | 224° |
| 2026-05-07 20:42 | 43.93979 | 7.55467 | 24996 ft | 485 kts | 224° |
| 2026-05-07 20:42 | 43.92067 | 7.52893 | 24997 ft | 482 kts | 224° |
| 2026-05-07 20:42 | 43.89671 | 7.49674 | 25002 ft | 477 kts | 224° |
| 2026-05-07 20:43 | 43.87294 | 7.46483 | 24997 ft | 474 kts | 224° |
| 2026-05-07 20:43 | 43.84919 | 7.43298 | 24998 ft | 477 kts | 224° |
| 2026-05-07 20:43 | 43.82524 | 7.40091 | 25003 ft | 480 kts | 224° |
| 2026-05-07 20:43 | 43.80116 | 7.36869 | 25016 ft | 482 kts | 224° |
| 2026-05-07 20:44 | 43.77715 | 7.33662 | 24999 ft | 478 kts | 224° |
| 2026-05-07 20:44 | 43.75323 | 7.30469 | 25001 ft | 476 kts | 224° |
| 2026-05-07 20:44 | 43.72950 | 7.27306 | 25004 ft | 468 kts | 224° |
| 2026-05-07 20:44 | 43.70664 | 7.24263 | 24981 ft | 446 kts | 224° |
| 2026-05-07 20:45 | 43.68477 | 7.21354 | 24985 ft | 426 kts | 224° |
| 2026-05-07 20:45 | 43.66387 | 7.18578 | 24979 ft | 409 kts | 224° |
| 2026-05-07 20:45 | 43.64379 | 7.15913 | 24978 ft | 392 kts | 224° |
| 2026-05-07 20:45 | 43.62432 | 7.13331 | 24622 ft | 387 kts | 224° |
| 2026-05-07 20:46 | 43.60513 | 7.10787 | 24409 ft | 377 kts | 224° |
| 2026-05-07 20:46 | 43.58623 | 7.08286 | 23948 ft | 376 kts | 224° |
| 2026-05-07 20:46 | 43.56748 | 7.05807 | 23623 ft | 371 kts | 224° |
| 2026-05-07 20:46 | 43.54892 | 7.03355 | 23222 ft | 368 kts | 224° |
| 2026-05-07 20:47 | 43.53049 | 7.00921 | 22849 ft | 365 kts | 224° |
| 2026-05-07 20:47 | 43.51225 | 6.98516 | 22480 ft | 362 kts | 224° |
| 2026-05-07 20:47 | 43.49413 | 6.96128 | 22103 ft | 359 kts | 224° |
| 2026-05-07 20:47 | 43.47617 | 6.93764 | 21736 ft | 356 kts | 224° |
| 2026-05-07 20:48 | 43.46434 | 6.92207 | 21492 ft | 353 kts | 224° |
| 2026-05-07 20:48 | 43.44758 | 6.89822 | 21197 ft | 340 kts | 231° |
| 2026-05-07 20:48 | 43.43546 | 6.87112 | 20860 ft | 330 kts | 248° |
| 2026-05-07 20:48 | 43.42917 | 6.84102 | 20324 ft | 326 kts | 260° |
| 2026-05-07 20:49 | 43.42588 | 6.81032 | 19793 ft | 324 kts | 263° |
| 2026-05-07 20:49 | 43.42300 | 6.77964 | 19204 ft | 323 kts | 262° |
| 2026-05-07 20:49 | 43.41948 | 6.74915 | 18643 ft | 322 kts | 260° |
| 2026-05-07 20:49 | 43.41554 | 6.71909 | 18158 ft | 318 kts | 259° |
| 2026-05-07 20:50 | 43.41155 | 6.68940 | 17668 ft | 314 kts | 259° |
| 2026-05-07 20:50 | 43.40765 | 6.66013 | 17292 ft | 307 kts | 259° |
| 2026-05-07 20:50 | 43.40392 | 6.63169 | 16982 ft | 298 kts | 260° |
| 2026-05-07 20:50 | 43.40030 | 6.60389 | 16636 ft | 292 kts | 260° |
| 2026-05-07 20:51 | 43.39678 | 6.57659 | 16347 ft | 289 kts | 260° |
| 2026-05-07 20:51 | 43.39327 | 6.54923 | 16062 ft | 293 kts | 260° |
| 2026-05-07 20:51 | 43.38969 | 6.52124 | 15736 ft | 302 kts | 260° |
| 2026-05-07 20:51 | 43.38601 | 6.49249 | 15425 ft | 307 kts | 260° |
| 2026-05-07 20:52 | 43.38231 | 6.46357 | 15086 ft | 307 kts | 260° |
| 2026-05-07 20:52 | 43.37862 | 6.43479 | 14751 ft | 305 kts | 260° |
| 2026-05-07 20:52 | 43.37495 | 6.40613 | 14436 ft | 304 kts | 260° |
| 2026-05-07 20:52 | 43.37128 | 6.37763 | 14112 ft | 302 kts | 260° |
| 2026-05-07 20:53 | 43.36762 | 6.34924 | 13789 ft | 301 kts | 260° |
| 2026-05-07 20:53 | 43.36398 | 6.32104 | 13473 ft | 299 kts | 260° |
| 2026-05-07 20:53 | 43.36035 | 6.29292 | 13153 ft | 298 kts | 260° |
| 2026-05-07 20:53 | 43.35673 | 6.26498 | 12836 ft | 297 kts | 260° |
| 2026-05-07 20:54 | 43.35311 | 6.23713 | 12517 ft | 295 kts | 260° |
| 2026-05-07 20:54 | 43.34951 | 6.20941 | 12208 ft | 294 kts | 260° |
| 2026-05-07 20:54 | 43.34592 | 6.18184 | 11887 ft | 293 kts | 260° |
| 2026-05-07 20:54 | 43.34238 | 6.15475 | 11579 ft | 291 kts | 260° |
| 2026-05-07 20:55 | 43.33881 | 6.12744 | 11266 ft | 290 kts | 260° |
| 2026-05-07 20:55 | 43.33524 | 6.10022 | 10955 ft | 289 kts | 260° |
| 2026-05-07 20:55 | 43.33168 | 6.07312 | 10641 ft | 288 kts | 260° |
| 2026-05-07 20:55 | 43.32814 | 6.04618 | 10335 ft | 286 kts | 260° |
| 2026-05-07 20:56 | 43.32460 | 6.01935 | 10066 ft | 283 kts | 260° |
| 2026-05-07 20:56 | 43.32114 | 5.99317 | 9964 ft | 275 kts | 259° |
| 2026-05-07 20:56 | 43.31772 | 5.96732 | 9593 ft | 277 kts | 259° |
| 2026-05-07 20:56 | 43.31430 | 5.94148 | 9348 ft | 273 kts | 259° |
| 2026-05-07 20:57 | 43.31090 | 5.91584 | 9048 ft | 273 kts | 259° |
| 2026-05-07 20:57 | 43.30749 | 5.89023 | 8760 ft | 272 kts | 259° |
| 2026-05-07 20:57 | 43.30410 | 5.86476 | 8467 ft | 271 kts | 259° |
| 2026-05-07 20:57 | 43.30072 | 5.83939 | 8181 ft | 270 kts | 259° |
| 2026-05-07 20:58 | 43.29735 | 5.81408 | 7899 ft | 269 kts | 259° |
| 2026-05-07 20:58 | 43.29399 | 5.78887 | 7613 ft | 268 kts | 259° |
| 2026-05-07 20:58 | 43.29065 | 5.76378 | 7327 ft | 267 kts | 259° |
| 2026-05-07 20:58 | 43.28731 | 5.73875 | 7042 ft | 266 kts | 259° |
| 2026-05-07 20:59 | 43.28399 | 5.71383 | 6761 ft | 265 kts | 259° |
| 2026-05-07 20:59 | 43.28115 | 5.69256 | 6519 ft | 264 kts | 259° |
| 2026-05-07 20:59 | 43.27784 | 5.66780 | 6241 ft | 263 kts | 259° |
| 2026-05-07 20:59 | 43.27454 | 5.64316 | 5953 ft | 262 kts | 259° |
| 2026-05-07 21:00 | 43.27126 | 5.61859 | 5665 ft | 261 kts | 259° |
| 2026-05-07 21:00 | 43.26798 | 5.59409 | 5397 ft | 260 kts | 259° |
| 2026-05-07 21:00 | 43.26472 | 5.56971 | 5127 ft | 259 kts | 259° |
| 2026-05-07 21:00 | 43.26148 | 5.54555 | 4919 ft | 255 kts | 259° |
| 2026-05-07 21:01 | 43.25829 | 5.52182 | 4717 ft | 252 kts | 259° |
| 2026-05-07 21:01 | 43.25526 | 5.49829 | 4497 ft | 248 kts | 263° |
| 2026-05-07 21:01 | 43.25664 | 5.47533 | 4387 ft | 239 kts | 293° |
| 2026-05-07 21:01 | 43.26606 | 5.45747 | 4403 ft | 226 kts | 314° |
| 2026-05-07 21:02 | 43.27722 | 5.44235 | 4282 ft | 228 kts | 315° |
| 2026-05-07 21:02 | 43.28855 | 5.42680 | 4182 ft | 231 kts | 314° |
| 2026-05-07 21:02 | 43.29957 | 5.41112 | 4062 ft | 225 kts | 313° |
| 2026-05-07 21:02 | 43.31022 | 5.39583 | 3933 ft | 219 kts | 313° |
| 2026-05-07 21:03 | 43.32062 | 5.38092 | 3702 ft | 218 kts | 313° |
| 2026-05-07 21:03 | 43.33092 | 5.36618 | 3502 ft | 210 kts | 313° |
| 2026-05-07 21:03 | 43.34085 | 5.35199 | 3277 ft | 203 kts | 313° |
| 2026-05-07 21:03 | 43.35049 | 5.33821 | 3062 ft | 196 kts | 313° |
| 2026-05-07 21:04 | 43.35988 | 5.32478 | 2719 ft | 195 kts | 313° |
| 2026-05-07 21:04 | 43.36920 | 5.31146 | 2405 ft | 192 kts | 313° |
| 2026-05-07 21:04 | 43.37832 | 5.29843 | 2048 ft | 185 kts | 313° |
| 2026-05-07 21:04 | 43.38695 | 5.28609 | 1762 ft | 173 kts | 313° |
| 2026-05-07 21:05 | 43.39512 | 5.27442 | 1437 ft | 164 kts | 313° |
| 2026-05-07 21:05 | 43.40283 | 5.26342 | 1145 ft | 152 kts | 313° |
| 2026-05-07 21:05 | 43.40970 | 5.25360 | 905 ft | 141 kts | 313° |
| 2026-05-07 21:05 | 43.41636 | 5.24409 | 668 ft | 136 kts | 313° |
| 2026-05-07 21:06 | 43.42300 | 5.23463 | 413 ft | 138 kts | 313° |
| 2026-05-07 21:06 | 43.42971 | 5.22503 | 173 ft | 137 kts | 313° |
| 2026-05-07 21:06 | 43.43612 | 5.21590 | 43 ft | 125 kts | 314° |
| 2026-05-07 21:06 | 43.44047 | 5.20970 | 21 ft | 24 kts | 331° |
| 2026-05-07 21:07 | 43.44147 | 5.21041 | 22 ft | 12 kts | 59° |
| 2026-05-07 21:07 | 43.44164 | 5.21081 | 22 ft | 5 kts | 60° |
| 2026-05-07 21:07 | 43.44165 | 5.21125 | 22 ft | 5 kts | 107° |
| 2026-05-07 21:07 | 43.44138 | 5.21175 | 23 ft | 8 kts | 131° |
| 2026-05-07 21:08 | 43.44083 | 5.21254 | 26 ft | 15 kts | 134° |
| 2026-05-07 21:08 | 43.43998 | 5.21375 | 29 ft | 20 kts | 134° |
| 2026-05-07 21:08 | 43.43928 | 5.21547 | 32 ft | 23 kts | 69° |
| 2026-05-07 21:08 | 43.44039 | 5.21712 | 32 ft | 22 kts | 44° |
| 2026-05-07 21:09 | 43.44104 | 5.21789 | 32 ft | 7 kts | 14° |
| 2026-05-07 21:09 | 43.44138 | 5.21752 | 31 ft | 9 kts | 307° |
| 2026-05-07 21:09 | 43.44168 | 5.21747 | 31 ft | 4 kts | 42° |
| 2026-05-07 21:09 | 43.44168 | 5.21764 | 31 ft | 0 kts | 94° |